createdAt,value
2022-09-03T00:00:44.623Z,46.61
2022-09-03T00:03:38.159Z,46.23
2022-09-03T00:06:33.751Z,46.17
2022-09-03T00:09:28.064Z,46.27
2022-09-03T00:12:24.862Z,46.40
2022-09-03T00:15:18.463Z,46.04
2022-09-03T00:18:09.858Z,46.20
2022-09-03T00:21:08.167Z,46.09
2022-09-03T00:23:58.765Z,46.12
2022-09-03T00:26:51.790Z,45.96
2022-09-03T00:29:47.228Z,46.08
2022-09-03T00:32:42.464Z,46.34
2022-09-03T00:35:34.101Z,46.29
2022-09-03T00:38:22.250Z,46.51
2022-09-03T00:41:22.097Z,46.37
2022-09-03T00:44:34.838Z,46.30
2022-09-03T00:47:29.638Z,46.53
2022-09-03T00:50:32.378Z,46.73
2022-09-03T00:53:31.905Z,46.65
2022-09-03T00:56:28.438Z,46.68
2022-09-03T00:59:29.346Z,46.75
2022-09-03T01:02:29.944Z,46.66
2022-09-03T01:05:34.386Z,46.75
2022-09-03T01:08:39.054Z,46.72
2022-09-03T01:11:35.076Z,46.59
2022-09-03T01:14:39.112Z,46.19
2022-09-03T01:17:37.946Z,46.77
2022-09-03T01:20:39.057Z,47.07
2022-09-03T01:23:49.580Z,47.18
2022-09-03T01:26:58.366Z,47.17
2022-09-03T01:29:55.538Z,47.40
2022-09-03T01:32:52.962Z,47.30
2022-09-03T01:35:48.063Z,47.43
2022-09-03T01:38:43.207Z,47.59
2022-09-03T01:42:03.271Z,47.33
2022-09-03T01:45:12.036Z,47.01
2022-09-03T01:48:11.102Z,47.16
2022-09-03T01:51:07.433Z,47.09
2022-09-03T01:54:40.022Z,47.27
2022-09-03T01:57:42.151Z,47.44
2022-09-03T02:00:34.087Z,47.51
2022-09-03T02:03:22.512Z,47.49
2022-09-03T02:06:12.172Z,47.41
2022-09-03T02:09:00.209Z,47.48
2022-09-03T02:11:57.586Z,47.82
2022-09-03T02:14:45.814Z,48.06
2022-09-03T02:17:36.979Z,47.82
2022-09-03T02:20:29.817Z,47.69
2022-09-03T02:23:18.107Z,48.14
2022-09-03T02:26:18.018Z,48.38
2022-09-03T02:29:06.472Z,48.45
2022-09-03T02:31:54.536Z,48.52
2022-09-03T02:34:44.098Z,48.87
2022-09-03T02:37:32.144Z,48.86
2022-09-03T02:40:20.162Z,48.97
2022-09-03T02:43:15.283Z,49.16
2022-09-03T02:46:06.144Z,49.28
2022-09-03T02:48:54.979Z,49.14
2022-09-03T02:51:45.715Z,49.29
2022-09-03T02:54:36.355Z,49.35
2022-09-03T02:57:27.601Z,49.76
2022-09-03T03:00:16.573Z,49.40
2022-09-03T03:03:04.845Z,49.27
2022-09-03T03:05:55.945Z,49.69
2022-09-03T03:08:45.544Z,49.84
2022-09-03T03:11:33.897Z,49.76
2022-09-03T03:14:22.679Z,50.03
2022-09-03T03:17:10.836Z,50.27
2022-09-03T03:19:58.829Z,50.21
2022-09-03T03:22:46.834Z,50.45
2022-09-03T03:25:38.386Z,50.21
2022-09-03T03:28:27.024Z,50.71
2022-09-03T03:31:16.710Z,50.73
2022-09-03T03:34:04.767Z,50.74
2022-09-03T03:36:52.870Z,51.39
2022-09-03T03:39:40.962Z,51.26
2022-09-03T03:42:30.319Z,51.43
2022-09-03T03:45:18.454Z,51.81
2022-09-03T03:48:06.692Z,51.48
2022-09-03T03:50:55.154Z,51.27
2022-09-03T03:53:43.238Z,51.51
2022-09-03T03:56:31.277Z,51.22
2022-09-03T03:59:20.650Z,51.58
2022-09-03T04:02:08.754Z,51.80
2022-09-03T04:04:56.780Z,51.68
2022-09-03T04:07:44.975Z,51.57
2022-09-03T04:10:33.493Z,52.03
2022-09-03T04:13:21.482Z,51.70
2022-09-03T04:16:12.951Z,51.68
2022-09-03T04:19:01.567Z,51.55
2022-09-03T04:21:49.524Z,51.28
2022-09-03T04:24:37.501Z,51.47
2022-09-03T04:27:25.813Z,51.68
2022-09-03T04:30:14.301Z,51.79
2022-09-03T04:33:03.670Z,51.53
2022-09-03T04:35:51.996Z,51.87
2022-09-03T04:38:42.046Z,51.83
2022-09-03T04:41:31.975Z,52.03
2022-09-03T04:44:19.971Z,52.23
2022-09-03T04:47:08.197Z,51.81
2022-09-03T04:49:57.585Z,51.98
2022-09-03T04:52:45.573Z,51.87
2022-09-03T04:55:35.193Z,52.15
2022-09-03T04:58:23.286Z,52.34
2022-09-03T05:01:12.710Z,52.78
2022-09-03T05:04:01.548Z,52.46
2022-09-03T05:06:50.867Z,52.71
2022-09-03T05:09:38.860Z,52.12
2022-09-03T05:12:27.596Z,52.50
2022-09-03T05:15:15.674Z,53.32
2022-09-03T05:18:04.475Z,55.55
2022-09-03T05:20:59.765Z,59.19
2022-09-03T05:23:50.767Z,66.17
2022-09-03T05:26:40.331Z,80.72
2022-09-03T05:29:28.341Z,90.83
2022-09-03T05:32:17.258Z,100.00
2022-09-03T05:35:06.516Z,100.00
2022-09-03T05:37:56.054Z,100.00
2022-09-03T05:40:45.526Z,100.00
2022-09-03T05:43:34.537Z,100.00
2022-09-03T05:46:30.121Z,100.00
2022-09-03T05:49:18.770Z,100.00
2022-09-03T05:52:06.838Z,100.00
2022-09-03T05:54:54.843Z,100.00
2022-09-03T05:57:46.035Z,100.00
2022-09-03T06:00:34.103Z,100.00
2022-09-03T06:03:22.237Z,100.00
2022-09-03T06:06:13.908Z,100.00
2022-09-03T06:09:04.346Z,100.00
2022-09-03T06:11:53.820Z,100.00
2022-09-03T06:14:43.623Z,100.00
2022-09-03T06:17:31.591Z,100.00
2022-09-03T06:20:20.136Z,100.00
2022-09-03T06:23:08.129Z,100.00
2022-09-03T06:26:05.524Z,100.00
2022-09-03T06:28:55.612Z,100.00
2022-09-03T06:31:45.045Z,100.00
2022-09-03T06:34:33.092Z,100.00
2022-09-03T06:37:21.130Z,100.00
2022-09-03T06:40:14.102Z,100.00
2022-09-03T06:43:03.150Z,100.00
2022-09-03T06:45:55.850Z,91.62
2022-09-03T06:48:45.909Z,91.23
2022-09-03T06:51:34.356Z,86.17
2022-09-03T06:54:23.104Z,81.88
2022-09-03T06:57:11.070Z,93.04
2022-09-03T06:59:59.161Z,99.17
2022-09-03T07:02:48.743Z,100.00
2022-09-03T07:05:38.804Z,100.00
2022-09-03T07:08:26.882Z,100.00
2022-09-03T07:11:16.841Z,100.00
2022-09-03T07:14:05.974Z,100.00
2022-09-03T07:16:53.947Z,100.00
2022-09-03T07:19:41.956Z,100.00
2022-09-03T07:22:31.688Z,100.00
2022-09-03T07:25:19.799Z,100.00
2022-09-03T07:28:07.840Z,100.00
2022-09-03T07:31:01.859Z,100.00
2022-09-03T07:33:49.864Z,100.00
2022-09-03T07:36:40.077Z,100.00
2022-09-03T07:39:30.754Z,100.00
2022-09-03T07:42:18.853Z,100.00
2022-09-03T07:45:10.786Z,100.00
2022-09-03T07:47:59.043Z,100.00
2022-09-03T07:50:48.054Z,100.00
2022-09-03T07:53:36.953Z,100.00
2022-09-03T07:56:27.361Z,100.00
2022-09-03T07:59:15.482Z,100.00
2022-09-03T08:02:06.051Z,100.00
2022-09-03T08:04:54.042Z,100.00
2022-09-03T08:07:42.031Z,100.00
2022-09-03T08:10:31.032Z,100.00
2022-09-03T08:13:20.383Z,100.00
2022-09-03T08:16:09.423Z,100.00
2022-09-03T08:18:57.799Z,100.00
2022-09-03T08:21:45.946Z,100.00
2022-09-03T08:24:34.269Z,100.00
2022-09-03T08:27:26.105Z,100.00
2022-09-03T08:30:15.542Z,100.00
2022-09-03T08:33:04.833Z,100.00
2022-09-03T08:35:54.734Z,100.00
2022-09-03T08:38:45.423Z,100.00
2022-09-03T08:41:47.410Z,100.00
2022-09-03T08:44:47.043Z,100.00
2022-09-03T08:47:41.792Z,100.00
2022-09-03T08:50:32.786Z,100.00
2022-09-03T08:53:25.111Z,100.00
2022-09-03T08:56:20.104Z,100.00
2022-09-03T08:59:09.379Z,100.00
2022-09-03T09:02:07.032Z,100.00
2022-09-03T09:05:06.270Z,100.00
2022-09-03T09:08:06.874Z,100.00
2022-09-03T09:11:03.405Z,100.00
2022-09-03T09:14:00.104Z,100.00
2022-09-03T09:16:57.204Z,100.00
2022-09-03T09:19:55.559Z,100.00
2022-09-03T09:22:49.405Z,100.00
2022-09-03T09:25:46.059Z,100.00
2022-09-03T09:28:37.667Z,100.00
2022-09-03T09:31:26.597Z,100.00
2022-09-03T09:34:15.528Z,100.00
2022-09-03T09:37:05.549Z,100.00
2022-09-03T09:40:00.630Z,100.00
2022-09-03T09:42:48.716Z,100.00
2022-09-03T09:45:38.104Z,100.00
2022-09-03T09:48:31.255Z,100.00
2022-09-03T09:51:22.433Z,100.00
2022-09-03T09:54:18.887Z,100.00
2022-09-03T09:57:17.770Z,100.00
2022-09-03T10:00:10.441Z,100.00
2022-09-03T10:03:02.001Z,100.00
2022-09-03T10:06:02.080Z,100.00
2022-09-03T10:08:50.035Z,100.00
2022-09-03T10:11:40.417Z,100.00
2022-09-03T10:14:35.274Z,100.00
2022-09-03T10:17:37.114Z,100.00
2022-09-03T10:20:33.622Z,100.00
2022-09-03T10:23:24.746Z,100.00
2022-09-03T10:26:16.841Z,100.00
2022-09-03T10:29:08.640Z,100.00
2022-09-03T10:32:11.676Z,100.00
2022-09-03T10:35:12.628Z,100.00
2022-09-03T10:38:10.639Z,100.00
2022-09-03T10:41:09.988Z,100.00
2022-09-03T10:44:19.293Z,100.00
2022-09-03T10:47:23.570Z,100.00
2022-09-03T10:50:16.677Z,100.00
2022-09-03T10:53:11.993Z,100.00
2022-09-03T10:56:05.666Z,100.00
2022-09-03T10:59:11.717Z,100.00
2022-09-03T11:02:15.278Z,100.00
2022-09-03T11:05:10.078Z,100.00
2022-09-03T11:08:03.195Z,100.00
2022-09-03T11:10:56.086Z,100.00
2022-09-03T11:13:49.401Z,100.00
2022-09-03T11:16:43.402Z,100.00
2022-09-03T11:19:36.972Z,100.00
2022-09-03T11:22:29.714Z,100.00
2022-09-03T11:25:21.831Z,100.00
2022-09-03T11:28:23.037Z,98.18
2022-09-03T11:31:23.879Z,88.66
2022-09-03T11:34:19.625Z,90.34
2022-09-03T11:37:20.639Z,86.85
2022-09-03T11:40:16.777Z,87.46
2022-09-03T11:43:13.469Z,85.95
2022-09-03T11:46:11.873Z,83.45
2022-09-03T11:49:12.015Z,86.73
2022-09-03T11:52:02.223Z,90.91
2022-09-03T11:54:50.435Z,89.45
2022-09-03T11:57:43.697Z,84.12
2022-09-03T12:00:31.768Z,80.29
2022-09-03T12:03:26.530Z,65.08
2022-09-03T12:06:40.413Z,63.85
2022-09-03T12:09:48.818Z,61.46
2022-09-03T12:12:53.823Z,58.30
2022-09-03T12:16:26.384Z,54.77
2022-09-03T12:19:26.146Z,51.68
2022-09-03T12:22:15.688Z,53.91
2022-09-03T12:25:11.940Z,52.76
2022-09-03T12:28:04.866Z,52.86
2022-09-03T12:30:54.216Z,54.64
2022-09-03T12:33:42.941Z,55.59
2022-09-03T12:36:39.572Z,53.41
2022-09-03T12:42:37.487Z,52.24
2022-09-03T12:46:09.937Z,51.08
2022-09-03T12:48:35.667Z,50.53
2022-09-03T12:54:32.970Z,50.11
2022-09-03T12:57:24.723Z,48.98
2022-09-03T13:00:16.411Z,50.43
2022-09-03T13:03:09.087Z,51.76
2022-09-03T13:06:00.461Z,52.93
2022-09-03T13:08:51.533Z,52.14
2022-09-03T13:11:39.751Z,53.10
2022-09-03T13:14:28.393Z,53.90
2022-09-03T13:17:40.559Z,54.07
2022-09-03T13:20:42.243Z,54.62
2022-09-03T13:23:43.869Z,55.00
2022-09-03T13:26:44.333Z,54.02
2022-09-03T13:29:41.032Z,53.15
2022-09-03T13:32:38.100Z,52.15
2022-09-03T13:35:32.289Z,52.74
2022-09-03T13:38:29.004Z,54.55
2022-09-03T13:41:22.120Z,58.66
2022-09-03T13:44:15.910Z,59.81
2022-09-03T13:47:11.634Z,57.78
2022-09-03T13:50:22.912Z,55.27
2022-09-03T13:53:20.365Z,55.46
2022-09-03T13:56:27.372Z,53.52
2022-09-03T13:59:24.823Z,54.78
2022-09-03T14:02:24.016Z,56.48
2022-09-03T14:05:17.123Z,56.89
2022-09-03T14:08:14.634Z,53.65
2022-09-03T14:11:22.680Z,53.98
2022-09-03T14:14:21.503Z,56.70
2022-09-03T14:17:14.670Z,57.35
2022-09-03T14:20:07.852Z,56.43
2022-09-03T14:23:04.151Z,54.57
2022-09-03T14:25:55.681Z,52.77
2022-09-03T14:28:49.322Z,52.63
2022-09-03T14:32:01.054Z,54.80
2022-09-03T14:35:07.744Z,57.59
2022-09-03T14:38:21.590Z,60.46
2022-09-03T14:41:29.664Z,62.70
2022-09-03T14:44:53.410Z,65.86
2022-09-03T14:47:58.118Z,66.24
2022-09-03T14:50:59.572Z,65.97
2022-09-03T14:54:28.642Z,66.99
2022-09-03T14:57:33.043Z,66.34
2022-09-03T15:00:26.090Z,63.26
2022-09-03T15:03:43.314Z,64.91
2022-09-03T15:06:47.395Z,67.02
2022-09-03T15:09:41.967Z,68.77
2022-09-03T15:12:36.785Z,72.67
2022-09-03T15:15:32.414Z,73.63
2022-09-03T15:18:31.672Z,78.03
2022-09-03T15:21:27.277Z,81.65
2022-09-03T15:24:21.830Z,83.18
2022-09-03T15:27:23.131Z,84.51
2022-09-03T15:30:13.707Z,82.42
2022-09-03T15:33:11.996Z,83.17
2022-09-03T15:36:16.198Z,82.29
2022-09-03T15:39:10.337Z,84.03
2022-09-03T15:42:05.746Z,82.97
2022-09-03T15:44:57.318Z,82.63
2022-09-03T15:47:54.517Z,83.63
2022-09-03T15:50:53.838Z,85.67
2022-09-03T15:53:52.663Z,86.38
2022-09-03T15:56:47.204Z,85.97
2022-09-03T15:59:41.505Z,86.07
2022-09-03T16:02:40.972Z,86.36
2022-09-03T16:05:40.258Z,89.60
2022-09-03T16:08:39.266Z,88.35
2022-09-03T16:11:38.032Z,91.16
2022-09-03T16:14:32.096Z,92.74
2022-09-03T16:17:27.868Z,97.39
2022-09-03T16:20:20.340Z,100.00
2022-09-03T16:23:14.055Z,100.00
2022-09-03T16:26:06.221Z,100.00
2022-09-03T16:29:00.824Z,100.00
2022-09-03T16:32:06.600Z,100.00
2022-09-03T16:35:07.206Z,100.00
2022-09-03T16:38:24.010Z,100.00
2022-09-03T16:41:23.354Z,100.00
2022-09-03T16:44:21.699Z,100.00
2022-09-03T16:47:18.572Z,100.00
2022-09-03T16:50:19.385Z,100.00
2022-09-03T16:53:14.772Z,100.00
2022-09-03T16:56:34.144Z,100.00
2022-09-03T16:59:48.267Z,100.00
2022-09-03T17:02:54.768Z,100.00
2022-09-03T17:06:06.163Z,100.00
2022-09-03T17:09:03.557Z,100.00
2022-09-03T17:12:00.376Z,100.00
2022-09-03T17:15:06.734Z,100.00
2022-09-03T17:18:25.909Z,100.00
2022-09-03T17:21:23.899Z,100.00
2022-09-03T17:24:33.989Z,100.00
2022-09-03T17:27:46.339Z,100.00
2022-09-03T17:30:44.642Z,100.00
2022-09-03T17:33:49.800Z,100.00
2022-09-03T17:36:38.871Z,100.00
2022-09-03T17:39:49.249Z,100.00
2022-09-03T17:42:50.405Z,100.00
2022-09-03T17:45:48.014Z,100.00
2022-09-03T17:48:59.267Z,100.00
2022-09-03T17:51:52.927Z,100.00
2022-09-03T17:54:45.411Z,100.00
2022-09-03T17:57:41.327Z,100.00
2022-09-03T18:00:37.557Z,100.00
2022-09-03T18:03:32.870Z,100.00
2022-09-03T18:06:28.920Z,100.00
2022-09-03T18:09:28.541Z,100.00
2022-09-03T18:12:33.564Z,100.00
2022-09-03T18:15:26.581Z,100.00
2022-09-03T18:18:21.803Z,100.00
2022-09-03T18:21:33.379Z,100.00
2022-09-03T18:24:51.081Z,100.00
2022-09-03T18:28:01.015Z,100.00
2022-09-03T18:31:06.427Z,100.00
2022-09-03T18:34:12.032Z,100.00
2022-09-03T18:37:19.030Z,100.00
2022-09-03T18:40:28.354Z,100.00
2022-09-03T18:43:42.702Z,100.00
2022-09-03T18:50:38.223Z,100.00
2022-09-03T18:53:54.227Z,100.00
2022-09-03T18:57:06.150Z,100.00
2022-09-03T19:00:28.069Z,100.00
2022-09-03T19:03:54.038Z,100.00
2022-09-03T19:07:07.247Z,100.00
2022-09-03T19:10:21.202Z,100.00
2022-09-03T19:13:42.795Z,100.00
2022-09-03T19:17:01.872Z,100.00
2022-09-03T19:20:21.065Z,100.00
2022-09-03T19:23:26.836Z,100.00
2022-09-03T19:26:44.569Z,100.00
2022-09-03T19:30:07.018Z,100.00
2022-09-03T19:33:29.714Z,100.00
2022-09-03T19:36:47.463Z,100.00
2022-09-03T19:40:08.273Z,100.00
2022-09-03T19:43:20.726Z,100.00
2022-09-03T19:46:37.517Z,100.00
2022-09-03T19:49:55.898Z,100.00
2022-09-03T19:53:07.795Z,100.00
2022-09-03T19:56:15.427Z,100.00
2022-09-03T19:59:29.926Z,100.00
2022-09-03T20:02:35.683Z,100.00
2022-09-03T20:05:41.841Z,100.00
2022-09-03T20:08:49.609Z,100.00
2022-09-03T20:11:40.291Z,100.00
2022-09-03T20:14:34.197Z,100.00
2022-09-03T20:17:33.856Z,100.00
2022-09-03T20:20:32.343Z,100.00
2022-09-03T20:23:25.938Z,100.00
2022-09-03T20:26:28.829Z,100.00
2022-09-03T20:29:47.979Z,100.00
2022-09-03T20:33:05.672Z,100.00
2022-09-03T20:36:06.953Z,100.00
2022-09-03T20:39:29.069Z,100.00
2022-09-03T20:42:59.989Z,100.00
2022-09-03T20:46:06.852Z,100.00
2022-09-03T20:49:04.355Z,100.00
2022-09-03T20:51:58.427Z,100.00
2022-09-03T20:54:53.334Z,100.00
2022-09-03T20:57:49.953Z,100.00
2022-09-03T21:00:47.993Z,100.00
2022-09-03T21:03:49.944Z,100.00
2022-09-03T21:06:43.850Z,100.00
2022-09-03T21:09:40.986Z,100.00
2022-09-03T21:12:39.093Z,100.00
2022-09-03T21:15:38.112Z,100.00
2022-09-03T21:18:34.730Z,100.00
2022-09-03T21:21:36.044Z,100.00
2022-09-03T21:24:32.059Z,100.00
2022-09-03T21:27:24.148Z,100.00
2022-09-03T21:30:15.845Z,100.00
2022-09-03T21:33:07.754Z,100.00
2022-09-03T21:36:04.318Z,100.00
2022-09-03T21:39:06.738Z,100.00
2022-09-03T21:42:01.486Z,100.00
2022-09-03T21:44:56.967Z,100.00
2022-09-03T21:47:52.211Z,100.00
2022-09-03T21:50:49.566Z,100.00
2022-09-03T21:53:44.194Z,100.00
2022-09-03T21:56:50.394Z,100.00
2022-09-03T22:00:04.010Z,100.00
2022-09-03T22:03:01.171Z,100.00
2022-09-03T22:05:55.291Z,100.00
2022-09-03T22:08:49.827Z,100.00
2022-09-03T22:11:45.827Z,100.00
2022-09-03T22:14:40.338Z,100.00
2022-09-03T22:17:36.190Z,100.00
2022-09-03T22:20:26.216Z,100.00
2022-09-03T22:23:21.063Z,100.00
2022-09-03T22:26:23.939Z,100.00
2022-09-03T22:29:19.632Z,100.00
2022-09-03T22:32:24.827Z,100.00
2022-09-03T22:35:28.203Z,100.00
2022-09-03T22:38:40.430Z,100.00
2022-09-03T22:41:54.636Z,100.00
2022-09-03T22:45:13.740Z,100.00
2022-09-03T22:48:12.864Z,100.00
2022-09-03T22:51:03.274Z,100.00
2022-09-03T22:54:05.723Z,100.00
2022-09-03T22:56:55.224Z,100.00
2022-09-03T22:59:48.660Z,100.00
2022-09-03T23:02:39.187Z,100.00
2022-09-03T23:05:43.756Z,100.00
2022-09-03T23:08:36.420Z,100.00
2022-09-03T23:11:27.629Z,100.00
2022-09-03T23:14:22.280Z,100.00
2022-09-03T23:17:14.058Z,100.00
2022-09-03T23:23:00.392Z,100.00
2022-09-03T23:25:53.804Z,100.00
2022-09-03T23:28:45.911Z,100.00
2022-09-03T23:31:35.500Z,100.00
2022-09-03T23:34:23.718Z,100.00
2022-09-03T23:37:33.491Z,100.00
2022-09-03T23:40:41.284Z,100.00
2022-09-03T23:44:02.798Z,100.00
2022-09-03T23:47:01.460Z,100.00
2022-09-03T23:49:59.034Z,100.00
2022-09-03T23:53:03.799Z,100.00
2022-09-03T23:56:08.016Z,100.00
2022-09-03T23:59:09.455Z,100.00
